sensor_id;sensor_type;location;lat;lon;timestamp;temperature;humidity
68051;DHT22;54839;51.364;7.246;2022-07-04T00:00:27;15.20;99.90
68051;DHT22;54839;51.364;7.246;2022-07-04T00:02:53;15.10;99.90
68051;DHT22;54839;51.364;7.246;2022-07-04T00:05:18;15.00;99.90
68051;DHT22;54839;51.364;7.246;2022-07-04T00:07:46;15.10;99.90
68051;DHT22;54839;51.364;7.246;2022-07-04T00:10:15;15.10;99.90
68051;DHT22;54839;51.364;7.246;2022-07-04T00:12:41;15.00;99.90
68051;DHT22;54839;51.364;7.246;2022-07-04T00:15:08;14.90;99.90
68051;DHT22;54839;51.364;7.246;2022-07-04T00:17:35;14.90;99.90
68051;DHT22;54839;51.364;7.246;2022-07-04T00:20:01;15.00;99.90
68051;DHT22;54839;51.364;7.246;2022-07-04T00:22:27;14.90;99.90
68051;DHT22;54839;51.364;7.246;2022-07-04T00:24:52;14.90;99.90
68051;DHT22;54839;51.364;7.246;2022-07-04T00:27:18;15.00;99.90
68051;DHT22;54839;51.364;7.246;2022-07-04T00:29:44;15.10;99.90
68051;DHT22;54839;51.364;7.246;2022-07-04T00:32:10;14.90;99.90
68051;DHT22;54839;51.364;7.246;2022-07-04T00:34:36;14.70;99.90
68051;DHT22;54839;51.364;7.246;2022-07-04T00:37:03;14.60;99.90
68051;DHT22;54839;51.364;7.246;2022-07-04T00:39:29;14.60;99.90
68051;DHT22;54839;51.364;7.246;2022-07-04T00:41:55;14.60;99.90
68051;DHT22;54839;51.364;7.246;2022-07-04T00:44:20;14.50;99.90
68051;DHT22;54839;51.364;7.246;2022-07-04T00:46:46;14.50;99.90
68051;DHT22;54839;51.364;7.246;2022-07-04T00:49:14;14.60;99.90
68051;DHT22;54839;51.364;7.246;2022-07-04T00:51:40;14.60;99.90
68051;DHT22;54839;51.364;7.246;2022-07-04T00:54:08;14.60;99.90
68051;DHT22;54839;51.364;7.246;2022-07-04T00:56:39;14.60;99.90
68051;DHT22;54839;51.364;7.246;2022-07-04T00:59:06;14.70;99.90
68051;DHT22;54839;51.364;7.246;2022-07-04T01:01:32;14.60;99.90
68051;DHT22;54839;51.364;7.246;2022-07-04T01:03:58;14.60;99.90
68051;DHT22;54839;51.364;7.246;2022-07-04T01:06:24;14.60;99.90
68051;DHT22;54839;51.364;7.246;2022-07-04T01:08:49;14.60;99.90
68051;DHT22;54839;51.364;7.246;2022-07-04T01:11:16;14.50;99.90
68051;DHT22;54839;51.364;7.246;2022-07-04T01:13:42;14.50;99.90
68051;DHT22;54839;51.364;7.246;2022-07-04T01:16:10;14.80;99.90
68051;DHT22;54839;51.364;7.246;2022-07-04T01:18:36;14.90;99.90
68051;DHT22;54839;51.364;7.246;2022-07-04T01:21:02;14.90;99.90
68051;DHT22;54839;51.364;7.246;2022-07-04T01:23:28;14.60;99.90
68051;DHT22;54839;51.364;7.246;2022-07-04T01:25:54;14.50;99.90
68051;DHT22;54839;51.364;7.246;2022-07-04T01:28:24;14.40;99.90
68051;DHT22;54839;51.364;7.246;2022-07-04T01:30:51;14.40;99.90
68051;DHT22;54839;51.364;7.246;2022-07-04T01:33:17;14.20;99.90
68051;DHT22;54839;51.364;7.246;2022-07-04T01:35:46;13.90;99.90
68051;DHT22;54839;51.364;7.246;2022-07-04T01:38:12;13.90;99.90
68051;DHT22;54839;51.364;7.246;2022-07-04T01:40:37;13.80;99.90
68051;DHT22;54839;51.364;7.246;2022-07-04T01:43:03;14.00;99.90
68051;DHT22;54839;51.364;7.246;2022-07-04T01:45:29;14.00;99.90
68051;DHT22;54839;51.364;7.246;2022-07-04T01:47:54;14.10;99.90
68051;DHT22;54839;51.364;7.246;2022-07-04T01:50:20;14.20;99.90
68051;DHT22;54839;51.364;7.246;2022-07-04T01:52:46;14.40;99.90
68051;DHT22;54839;51.364;7.246;2022-07-04T01:55:12;14.30;99.90
68051;DHT22;54839;51.364;7.246;2022-07-04T01:57:38;14.30;99.90
68051;DHT22;54839;51.364;7.246;2022-07-04T02:00:08;14.30;99.90
68051;DHT22;54839;51.364;7.246;2022-07-04T02:02:55;14.30;99.90
68051;DHT22;54839;51.364;7.246;2022-07-04T02:05:20;14.50;99.90
68051;DHT22;54839;51.364;7.246;2022-07-04T02:07:47;14.60;99.90
68051;DHT22;54839;51.364;7.246;2022-07-04T02:10:13;14.90;99.90
68051;DHT22;54839;51.364;7.246;2022-07-04T02:12:39;14.80;99.90
68051;DHT22;54839;51.364;7.246;2022-07-04T02:15:23;14.60;99.90
68051;DHT22;54839;51.364;7.246;2022-07-04T02:17:48;14.30;99.90
68051;DHT22;54839;51.364;7.246;2022-07-04T02:20:14;14.20;99.90
68051;DHT22;54839;51.364;7.246;2022-07-04T02:22:40;14.00;99.90
68051;DHT22;54839;51.364;7.246;2022-07-04T02:25:06;13.80;99.90
68051;DHT22;54839;51.364;7.246;2022-07-04T02:27:32;13.90;99.90
68051;DHT22;54839;51.364;7.246;2022-07-04T02:29:57;13.70;99.90
68051;DHT22;54839;51.364;7.246;2022-07-04T02:32:23;13.70;99.90
68051;DHT22;54839;51.364;7.246;2022-07-04T02:34:49;13.70;99.90
68051;DHT22;54839;51.364;7.246;2022-07-04T02:37:15;13.70;99.90
68051;DHT22;54839;51.364;7.246;2022-07-04T02:39:40;13.60;99.90
68051;DHT22;54839;51.364;7.246;2022-07-04T02:42:06;13.70;99.90
68051;DHT22;54839;51.364;7.246;2022-07-04T02:44:31;13.60;99.90
68051;DHT22;54839;51.364;7.246;2022-07-04T02:46:57;13.50;99.90
68051;DHT22;54839;51.364;7.246;2022-07-04T02:49:22;13.50;99.90
68051;DHT22;54839;51.364;7.246;2022-07-04T02:51:48;13.60;99.90
68051;DHT22;54839;51.364;7.246;2022-07-04T02:54:14;13.50;99.90
68051;DHT22;54839;51.364;7.246;2022-07-04T02:56:41;13.50;99.90
68051;DHT22;54839;51.364;7.246;2022-07-04T02:59:06;13.50;99.90
68051;DHT22;54839;51.364;7.246;2022-07-04T03:01:32;13.70;99.90
68051;DHT22;54839;51.364;7.246;2022-07-04T03:03:57;13.60;99.90
68051;DHT22;54839;51.364;7.246;2022-07-04T03:06:23;13.40;99.90
68051;DHT22;54839;51.364;7.246;2022-07-04T03:08:48;13.30;99.90
68051;DHT22;54839;51.364;7.246;2022-07-04T03:11:14;13.20;99.90
68051;DHT22;54839;51.364;7.246;2022-07-04T03:13:40;13.10;99.90
68051;DHT22;54839;51.364;7.246;2022-07-04T03:16:06;13.10;99.90
68051;DHT22;54839;51.364;7.246;2022-07-04T03:18:32;13.10;99.90
68051;DHT22;54839;51.364;7.246;2022-07-04T03:20:57;13.10;99.90
68051;DHT22;54839;51.364;7.246;2022-07-04T03:23:23;13.20;99.90
68051;DHT22;54839;51.364;7.246;2022-07-04T03:25:48;13.50;99.90
68051;DHT22;54839;51.364;7.246;2022-07-04T03:28:14;13.50;99.90
68051;DHT22;54839;51.364;7.246;2022-07-04T03:30:40;13.30;99.90
68051;DHT22;54839;51.364;7.246;2022-07-04T03:33:05;13.20;99.90
68051;DHT22;54839;51.364;7.246;2022-07-04T03:35:31;13.10;99.90
68051;DHT22;54839;51.364;7.246;2022-07-04T03:37:57;13.00;99.90
68051;DHT22;54839;51.364;7.246;2022-07-04T03:40:23;13.00;99.90
68051;DHT22;54839;51.364;7.246;2022-07-04T03:42:48;13.10;99.90
68051;DHT22;54839;51.364;7.246;2022-07-04T03:45:14;13.50;99.90
68051;DHT22;54839;51.364;7.246;2022-07-04T03:47:40;13.80;99.90
68051;DHT22;54839;51.364;7.246;2022-07-04T03:50:06;13.60;99.90
68051;DHT22;54839;51.364;7.246;2022-07-04T03:52:32;13.60;99.90
68051;DHT22;54839;51.364;7.246;2022-07-04T03:54:57;13.80;99.90
68051;DHT22;54839;51.364;7.246;2022-07-04T03:57:23;13.80;99.90
68051;DHT22;54839;51.364;7.246;2022-07-04T03:59:49;13.70;99.90
68051;DHT22;54839;51.364;7.246;2022-07-04T04:02:14;13.50;99.90
68051;DHT22;54839;51.364;7.246;2022-07-04T04:04:40;13.50;99.90
68051;DHT22;54839;51.364;7.246;2022-07-04T04:07:24;13.40;99.90
68051;DHT22;54839;51.364;7.246;2022-07-04T04:09:50;13.30;99.90
68051;DHT22;54839;51.364;7.246;2022-07-04T04:12:15;13.40;99.90
68051;DHT22;54839;51.364;7.246;2022-07-04T04:14:41;13.40;99.90
68051;DHT22;54839;51.364;7.246;2022-07-04T04:17:07;13.50;99.90
68051;DHT22;54839;51.364;7.246;2022-07-04T04:19:33;13.50;99.90
68051;DHT22;54839;51.364;7.246;2022-07-04T04:21:58;13.50;99.90
68051;DHT22;54839;51.364;7.246;2022-07-04T04:24:24;13.50;99.90
68051;DHT22;54839;51.364;7.246;2022-07-04T04:26:50;13.60;99.90
68051;DHT22;54839;51.364;7.246;2022-07-04T04:29:15;13.70;99.90
68051;DHT22;54839;51.364;7.246;2022-07-04T04:31:41;14.00;99.90
68051;DHT22;54839;51.364;7.246;2022-07-04T04:34:06;14.00;99.90
68051;DHT22;54839;51.364;7.246;2022-07-04T04:36:32;13.90;99.90
68051;DHT22;54839;51.364;7.246;2022-07-04T04:38:58;14.00;99.90
68051;DHT22;54839;51.364;7.246;2022-07-04T04:41:23;14.00;99.90
68051;DHT22;54839;51.364;7.246;2022-07-04T04:43:49;14.00;99.90
68051;DHT22;54839;51.364;7.246;2022-07-04T04:46:15;14.10;99.90
68051;DHT22;54839;51.364;7.246;2022-07-04T04:48:40;14.40;99.90
68051;DHT22;54839;51.364;7.246;2022-07-04T04:51:06;14.60;99.90
68051;DHT22;54839;51.364;7.246;2022-07-04T04:53:31;14.80;99.90
68051;DHT22;54839;51.364;7.246;2022-07-04T04:55:57;14.80;99.90
68051;DHT22;54839;51.364;7.246;2022-07-04T04:58:23;14.80;99.90
68051;DHT22;54839;51.364;7.246;2022-07-04T05:00:49;14.60;99.90
68051;DHT22;54839;51.364;7.246;2022-07-04T05:03:18;14.60;99.90
68051;DHT22;54839;51.364;7.246;2022-07-04T05:05:44;14.60;99.90
68051;DHT22;54839;51.364;7.246;2022-07-04T05:08:10;14.60;99.90
68051;DHT22;54839;51.364;7.246;2022-07-04T05:10:38;14.60;99.90
68051;DHT22;54839;51.364;7.246;2022-07-04T05:13:03;14.80;99.90
68051;DHT22;54839;51.364;7.246;2022-07-04T05:15:29;14.80;99.90
68051;DHT22;54839;51.364;7.246;2022-07-04T05:17:55;14.90;99.90
68051;DHT22;54839;51.364;7.246;2022-07-04T05:20:20;14.90;99.90
68051;DHT22;54839;51.364;7.246;2022-07-04T05:22:46;15.00;99.90
68051;DHT22;54839;51.364;7.246;2022-07-04T05:25:11;15.10;99.90
68051;DHT22;54839;51.364;7.246;2022-07-04T05:27:37;15.10;99.90
68051;DHT22;54839;51.364;7.246;2022-07-04T05:30:03;15.20;99.90
68051;DHT22;54839;51.364;7.246;2022-07-04T05:32:29;15.20;99.90
68051;DHT22;54839;51.364;7.246;2022-07-04T05:34:55;15.30;99.90
68051;DHT22;54839;51.364;7.246;2022-07-04T05:37:21;15.40;99.90
68051;DHT22;54839;51.364;7.246;2022-07-04T05:39:47;15.50;99.90
68051;DHT22;54839;51.364;7.246;2022-07-04T05:42:13;15.50;99.90
68051;DHT22;54839;51.364;7.246;2022-07-04T05:44:38;15.60;99.90
68051;DHT22;54839;51.364;7.246;2022-07-04T05:47:04;15.60;99.90
68051;DHT22;54839;51.364;7.246;2022-07-04T05:49:29;15.60;99.90
68051;DHT22;54839;51.364;7.246;2022-07-04T05:51:55;15.70;99.90
68051;DHT22;54839;51.364;7.246;2022-07-04T05:54:21;15.70;99.90
68051;DHT22;54839;51.364;7.246;2022-07-04T05:56:46;15.70;99.90
68051;DHT22;54839;51.364;7.246;2022-07-04T05:59:12;15.90;99.90
68051;DHT22;54839;51.364;7.246;2022-07-04T06:01:38;16.00;99.90
68051;DHT22;54839;51.364;7.246;2022-07-04T06:04:04;16.00;99.90
68051;DHT22;54839;51.364;7.246;2022-07-04T06:06:30;16.00;99.90
68051;DHT22;54839;51.364;7.246;2022-07-04T06:08:56;16.20;99.90
68051;DHT22;54839;51.364;7.246;2022-07-04T06:11:22;16.20;99.90
68051;DHT22;54839;51.364;7.246;2022-07-04T06:13:48;16.20;99.90
68051;DHT22;54839;51.364;7.246;2022-07-04T06:16:14;16.30;99.90
68051;DHT22;54839;51.364;7.246;2022-07-04T06:18:39;16.30;99.90
68051;DHT22;54839;51.364;7.246;2022-07-04T06:21:05;16.40;99.90
68051;DHT22;54839;51.364;7.246;2022-07-04T06:23:31;16.30;99.90
68051;DHT22;54839;51.364;7.246;2022-07-04T06:25:57;16.30;99.90
68051;DHT22;54839;51.364;7.246;2022-07-04T06:28:23;16.30;99.90
68051;DHT22;54839;51.364;7.246;2022-07-04T06:30:48;16.50;99.90
68051;DHT22;54839;51.364;7.246;2022-07-04T06:33:14;16.50;99.90
68051;DHT22;54839;51.364;7.246;2022-07-04T06:35:40;16.60;99.90
68051;DHT22;54839;51.364;7.246;2022-07-04T06:38:17;16.70;99.90
68051;DHT22;54839;51.364;7.246;2022-07-04T06:40:43;16.80;99.90
68051;DHT22;54839;51.364;7.246;2022-07-04T06:43:09;16.80;99.90
68051;DHT22;54839;51.364;7.246;2022-07-04T06:45:35;16.80;99.90
68051;DHT22;54839;51.364;7.246;2022-07-04T06:48:02;16.80;99.90
68051;DHT22;54839;51.364;7.246;2022-07-04T06:50:28;16.90;99.90
68051;DHT22;54839;51.364;7.246;2022-07-04T06:52:58;16.90;99.90
68051;DHT22;54839;51.364;7.246;2022-07-04T06:55:24;17.00;99.90
68051;DHT22;54839;51.364;7.246;2022-07-04T06:57:50;17.00;99.90
68051;DHT22;54839;51.364;7.246;2022-07-04T07:00:15;17.20;99.90
68051;DHT22;54839;51.364;7.246;2022-07-04T07:02:41;17.10;99.90
68051;DHT22;54839;51.364;7.246;2022-07-04T07:05:07;17.10;99.90
68051;DHT22;54839;51.364;7.246;2022-07-04T07:07:32;17.20;99.90
68051;DHT22;54839;51.364;7.246;2022-07-04T07:09:58;17.20;99.90
68051;DHT22;54839;51.364;7.246;2022-07-04T07:12:23;17.30;99.90
68051;DHT22;54839;51.364;7.246;2022-07-04T07:14:50;17.30;99.90
68051;DHT22;54839;51.364;7.246;2022-07-04T07:17:16;17.40;99.90
68051;DHT22;54839;51.364;7.246;2022-07-04T07:19:43;17.40;99.90
68051;DHT22;54839;51.364;7.246;2022-07-04T07:22:09;17.40;99.90
68051;DHT22;54839;51.364;7.246;2022-07-04T07:24:36;17.40;99.90
68051;DHT22;54839;51.364;7.246;2022-07-04T07:27:02;17.20;99.90
68051;DHT22;54839;51.364;7.246;2022-07-04T07:29:27;17.40;99.90
68051;DHT22;54839;51.364;7.246;2022-07-04T07:31:53;17.50;99.90
68051;DHT22;54839;51.364;7.246;2022-07-04T07:34:19;17.60;99.90
68051;DHT22;54839;51.364;7.246;2022-07-04T07:36:44;17.50;99.90
68051;DHT22;54839;51.364;7.246;2022-07-04T07:39:10;17.50;99.90
68051;DHT22;54839;51.364;7.246;2022-07-04T07:41:36;17.60;99.90
68051;DHT22;54839;51.364;7.246;2022-07-04T07:44:01;17.70;99.90
68051;DHT22;54839;51.364;7.246;2022-07-04T07:46:27;17.80;99.90
68051;DHT22;54839;51.364;7.246;2022-07-04T07:48:52;17.90;99.90
68051;DHT22;54839;51.364;7.246;2022-07-04T07:51:18;18.00;99.90
68051;DHT22;54839;51.364;7.246;2022-07-04T07:53:44;18.20;99.90
68051;DHT22;54839;51.364;7.246;2022-07-04T07:56:09;18.10;99.90
68051;DHT22;54839;51.364;7.246;2022-07-04T07:58:35;18.20;99.90
68051;DHT22;54839;51.364;7.246;2022-07-04T08:01:00;18.40;99.90
68051;DHT22;54839;51.364;7.246;2022-07-04T08:03:29;18.60;99.90
68051;DHT22;54839;51.364;7.246;2022-07-04T08:06:15;18.40;99.90
68051;DHT22;54839;51.364;7.246;2022-07-04T08:08:41;18.50;99.90
68051;DHT22;54839;51.364;7.246;2022-07-04T08:11:07;18.50;99.90
68051;DHT22;54839;51.364;7.246;2022-07-04T08:13:32;18.30;99.90
68051;DHT22;54839;51.364;7.246;2022-07-04T08:15:58;18.50;99.90
68051;DHT22;54839;51.364;7.246;2022-07-04T08:18:23;18.50;99.90
68051;DHT22;54839;51.364;7.246;2022-07-04T08:20:50;18.50;99.90
68051;DHT22;54839;51.364;7.246;2022-07-04T08:23:16;18.50;99.90
68051;DHT22;54839;51.364;7.246;2022-07-04T08:25:41;18.60;99.90
68051;DHT22;54839;51.364;7.246;2022-07-04T08:28:07;18.70;99.90
68051;DHT22;54839;51.364;7.246;2022-07-04T08:30:33;19.00;99.90
68051;DHT22;54839;51.364;7.246;2022-07-04T08:32:58;19.00;99.90
68051;DHT22;54839;51.364;7.246;2022-07-04T08:35:24;19.00;99.90
68051;DHT22;54839;51.364;7.246;2022-07-04T08:37:50;18.70;99.90
68051;DHT22;54839;51.364;7.246;2022-07-04T08:40:21;19.00;99.90
68051;DHT22;54839;51.364;7.246;2022-07-04T08:42:46;19.00;99.90
68051;DHT22;54839;51.364;7.246;2022-07-04T08:45:15;19.20;99.90
68051;DHT22;54839;51.364;7.246;2022-07-04T08:47:43;19.20;99.90
68051;DHT22;54839;51.364;7.246;2022-07-04T08:50:16;19.10;99.90
68051;DHT22;54839;51.364;7.246;2022-07-04T08:52:52;19.10;99.90
68051;DHT22;54839;51.364;7.246;2022-07-04T08:55:19;19.10;99.90
68051;DHT22;54839;51.364;7.246;2022-07-04T08:58:03;19.10;99.90
68051;DHT22;54839;51.364;7.246;2022-07-04T09:00:49;19.40;99.90
68051;DHT22;54839;51.364;7.246;2022-07-04T09:03:16;19.40;99.90
68051;DHT22;54839;51.364;7.246;2022-07-04T09:05:43;19.20;99.90
68051;DHT22;54839;51.364;7.246;2022-07-04T09:08:08;19.20;99.90
68051;DHT22;54839;51.364;7.246;2022-07-04T09:10:34;19.30;99.90
68051;DHT22;54839;51.364;7.246;2022-07-04T09:13:04;19.50;99.90
68051;DHT22;54839;51.364;7.246;2022-07-04T09:15:31;19.60;99.90
68051;DHT22;54839;51.364;7.246;2022-07-04T09:17:57;19.50;99.90
68051;DHT22;54839;51.364;7.246;2022-07-04T09:20:23;19.50;99.90
68051;DHT22;54839;51.364;7.246;2022-07-04T09:22:50;19.60;99.90
68051;DHT22;54839;51.364;7.246;2022-07-04T09:25:17;19.80;99.90
68051;DHT22;54839;51.364;7.246;2022-07-04T09:27:50;19.90;99.90
68051;DHT22;54839;51.364;7.246;2022-07-04T09:30:19;19.90;99.90
68051;DHT22;54839;51.364;7.246;2022-07-04T09:32:51;19.90;99.90
68051;DHT22;54839;51.364;7.246;2022-07-04T09:35:20;20.00;99.90
68051;DHT22;54839;51.364;7.246;2022-07-04T09:37:51;20.00;99.90
68051;DHT22;54839;51.364;7.246;2022-07-04T09:40:24;20.20;99.90
68051;DHT22;54839;51.364;7.246;2022-07-04T09:42:50;20.20;99.90
68051;DHT22;54839;51.364;7.246;2022-07-04T09:45:16;20.40;99.90
68051;DHT22;54839;51.364;7.246;2022-07-04T09:47:45;20.50;99.90
68051;DHT22;54839;51.364;7.246;2022-07-04T09:50:17;20.50;99.90
68051;DHT22;54839;51.364;7.246;2022-07-04T09:52:51;20.40;99.90
68051;DHT22;54839;51.364;7.246;2022-07-04T09:57:48;20.70;99.90
68051;DHT22;54839;51.364;7.246;2022-07-04T10:00:21;20.50;99.90
68051;DHT22;54839;51.364;7.246;2022-07-04T10:02:47;20.60;99.90
68051;DHT22;54839;51.364;7.246;2022-07-04T10:05:27;20.70;99.90
68051;DHT22;54839;51.364;7.246;2022-07-04T10:07:58;20.80;99.90
68051;DHT22;54839;51.364;7.246;2022-07-04T10:10:28;20.80;99.90
68051;DHT22;54839;51.364;7.246;2022-07-04T10:12:57;20.60;99.90
68051;DHT22;54839;51.364;7.246;2022-07-04T10:15:23;20.70;99.90
68051;DHT22;54839;51.364;7.246;2022-07-04T10:17:49;20.90;99.90
68051;DHT22;54839;51.364;7.246;2022-07-04T10:20:15;20.80;99.90
68051;DHT22;54839;51.364;7.246;2022-07-04T10:22:41;21.00;99.90
68051;DHT22;54839;51.364;7.246;2022-07-04T10:25:08;21.00;99.90
68051;DHT22;54839;51.364;7.246;2022-07-04T10:27:35;21.10;99.90
68051;DHT22;54839;51.364;7.246;2022-07-04T10:30:03;21.10;99.90
68051;DHT22;54839;51.364;7.246;2022-07-04T10:32:30;21.30;99.80
68051;DHT22;54839;51.364;7.246;2022-07-04T10:34:56;21.40;98.70
68051;DHT22;54839;51.364;7.246;2022-07-04T10:37:22;21.30;98.90
68051;DHT22;54839;51.364;7.246;2022-07-04T10:39:48;21.30;98.50
68051;DHT22;54839;51.364;7.246;2022-07-04T10:42:24;21.40;97.90
68051;DHT22;54839;51.364;7.246;2022-07-04T10:44:50;21.50;97.80
68051;DHT22;54839;51.364;7.246;2022-07-04T10:47:24;21.70;97.30
68051;DHT22;54839;51.364;7.246;2022-07-04T10:49:51;21.60;97.00
68051;DHT22;54839;51.364;7.246;2022-07-04T10:52:17;21.80;96.80
68051;DHT22;54839;51.364;7.246;2022-07-04T10:54:43;21.50;96.40
68051;DHT22;54839;51.364;7.246;2022-07-04T10:57:22;21.20;96.70
68051;DHT22;54839;51.364;7.246;2022-07-04T11:02:27;21.80;96.20
68051;DHT22;54839;51.364;7.246;2022-07-04T11:05:09;21.90;96.60
68051;DHT22;54839;51.364;7.246;2022-07-04T11:17:55;22.80;93.10
68051;DHT22;54839;51.364;7.246;2022-07-04T11:20:22;22.80;92.70
68051;DHT22;54839;51.364;7.246;2022-07-04T11:22:48;22.80;92.30
68051;DHT22;54839;51.364;7.246;2022-07-04T11:25:14;22.50;92.00
68051;DHT22;54839;51.364;7.246;2022-07-04T11:27:41;22.60;92.00
68051;DHT22;54839;51.364;7.246;2022-07-04T11:30:07;23.00;91.50
68051;DHT22;54839;51.364;7.246;2022-07-04T11:32:35;22.60;91.60
68051;DHT22;54839;51.364;7.246;2022-07-04T11:35:05;22.60;91.20
68051;DHT22;54839;51.364;7.246;2022-07-04T11:37:31;22.60;90.80
68051;DHT22;54839;51.364;7.246;2022-07-04T11:39:57;22.80;90.90
68051;DHT22;54839;51.364;7.246;2022-07-04T11:43:08;22.60;90.40
68051;DHT22;54839;51.364;7.246;2022-07-04T11:45:53;23.00;91.10
68051;DHT22;54839;51.364;7.246;2022-07-04T11:48:23;23.20;90.40
68051;DHT22;54839;51.364;7.246;2022-07-04T11:50:48;23.10;90.40
68051;DHT22;54839;51.364;7.246;2022-07-04T11:53:14;23.40;87.80
68051;DHT22;54839;51.364;7.246;2022-07-04T11:55:52;23.40;85.60
68051;DHT22;54839;51.364;7.246;2022-07-04T11:58:18;23.50;86.20
68051;DHT22;54839;51.364;7.246;2022-07-04T12:00:43;24.30;84.50
68051;DHT22;54839;51.364;7.246;2022-07-04T12:03:09;24.70;82.70
68051;DHT22;54839;51.364;7.246;2022-07-04T12:05:35;24.70;81.20
68051;DHT22;54839;51.364;7.246;2022-07-04T12:08:02;24.20;83.10
68051;DHT22;54839;51.364;7.246;2022-07-04T12:10:30;23.80;81.60
68051;DHT22;54839;51.364;7.246;2022-07-04T12:13:01;23.70;81.50
68051;DHT22;54839;51.364;7.246;2022-07-04T12:15:38;23.90;83.80
68051;DHT22;54839;51.364;7.246;2022-07-04T12:18:04;24.30;83.20
68051;DHT22;54839;51.364;7.246;2022-07-04T12:20:31;24.20;82.00
68051;DHT22;54839;51.364;7.246;2022-07-04T12:22:59;23.70;82.70
68051;DHT22;54839;51.364;7.246;2022-07-04T12:27:56;23.00;86.10
68051;DHT22;54839;51.364;7.246;2022-07-04T12:30:27;23.20;85.70
68051;DHT22;54839;51.364;7.246;2022-07-04T12:32:58;23.50;84.80
68051;DHT22;54839;51.364;7.246;2022-07-04T12:40:33;24.60;79.90
68051;DHT22;54839;51.364;7.246;2022-07-04T12:42:59;24.50;79.80
68051;DHT22;54839;51.364;7.246;2022-07-04T12:45:25;24.30;81.00
68051;DHT22;54839;51.364;7.246;2022-07-04T12:47:51;26.20;81.40
68051;DHT22;54839;51.364;7.246;2022-07-04T12:50:26;30.20;72.10
68051;DHT22;54839;51.364;7.246;2022-07-04T12:52:52;31.50;64.00
68051;DHT22;54839;51.364;7.246;2022-07-04T12:55:18;29.10;62.10
68051;DHT22;54839;51.364;7.246;2022-07-04T12:57:44;27.30;62.20
68051;DHT22;54839;51.364;7.246;2022-07-04T13:00:10;26.30;64.20
68051;DHT22;54839;51.364;7.246;2022-07-04T13:02:35;25.70;65.40
68051;DHT22;54839;51.364;7.246;2022-07-04T13:05:01;25.40;65.50
68051;DHT22;54839;51.364;7.246;2022-07-04T13:07:26;24.90;67.00
68051;DHT22;54839;51.364;7.246;2022-07-04T13:09:52;24.90;68.20
68051;DHT22;54839;51.364;7.246;2022-07-04T13:12:17;25.00;68.60
68051;DHT22;54839;51.364;7.246;2022-07-04T13:14:57;24.70;67.00
68051;DHT22;54839;51.364;7.246;2022-07-04T13:17:24;24.30;68.10
68051;DHT22;54839;51.364;7.246;2022-07-04T13:19:51;24.00;68.80
68051;DHT22;54839;51.364;7.246;2022-07-04T13:22:22;24.20;69.30
68051;DHT22;54839;51.364;7.246;2022-07-04T13:24:48;24.30;70.30
68051;DHT22;54839;51.364;7.246;2022-07-04T13:27:15;27.40;66.60
68051;DHT22;54839;51.364;7.246;2022-07-04T13:29:41;27.70;64.70
68051;DHT22;54839;51.364;7.246;2022-07-04T13:32:06;26.90;64.10
68051;DHT22;54839;51.364;7.246;2022-07-04T13:34:32;26.00;65.40
68051;DHT22;54839;51.364;7.246;2022-07-04T13:36:57;27.50;61.70
68051;DHT22;54839;51.364;7.246;2022-07-04T13:39:24;29.40;56.90
68051;DHT22;54839;51.364;7.246;2022-07-04T13:41:49;28.30;56.50
68051;DHT22;54839;51.364;7.246;2022-07-04T13:44:15;26.20;59.90
68051;DHT22;54839;51.364;7.246;2022-07-04T13:46:44;25.40;62.60
68051;DHT22;54839;51.364;7.246;2022-07-04T13:49:10;25.10;63.80
68051;DHT22;54839;51.364;7.246;2022-07-04T13:51:36;25.10;65.50
68051;DHT22;54839;51.364;7.246;2022-07-04T13:54:02;25.70;63.90
68051;DHT22;54839;51.364;7.246;2022-07-04T13:56:28;25.40;64.80
68051;DHT22;54839;51.364;7.246;2022-07-04T13:58:53;25.20;65.50
68051;DHT22;54839;51.364;7.246;2022-07-04T14:01:19;26.40;65.00
68051;DHT22;54839;51.364;7.246;2022-07-04T14:03:49;28.70;57.70
68051;DHT22;54839;51.364;7.246;2022-07-04T14:06:16;27.60;59.60
68051;DHT22;54839;51.364;7.246;2022-07-04T14:08:42;26.90;59.90
68051;DHT22;54839;51.364;7.246;2022-07-04T14:11:07;26.20;60.40
68051;DHT22;54839;51.364;7.246;2022-07-04T14:13:33;26.70;60.30
68051;DHT22;54839;51.364;7.246;2022-07-04T14:15:59;26.90;59.80
68051;DHT22;54839;51.364;7.246;2022-07-04T14:18:25;27.10;59.20
68051;DHT22;54839;51.364;7.246;2022-07-04T14:20:51;26.80;59.60
68051;DHT22;54839;51.364;7.246;2022-07-04T14:23:17;26.40;59.80
68051;DHT22;54839;51.364;7.246;2022-07-04T14:26:01;26.80;59.40
68051;DHT22;54839;51.364;7.246;2022-07-04T14:28:28;26.40;60.00
68051;DHT22;54839;51.364;7.246;2022-07-04T14:30:53;29.00;59.60
68051;DHT22;54839;51.364;7.246;2022-07-04T14:33:19;30.20;55.70
68051;DHT22;54839;51.364;7.246;2022-07-04T14:35:44;28.90;55.50
68051;DHT22;54839;51.364;7.246;2022-07-04T14:38:10;27.80;57.50
68051;DHT22;54839;51.364;7.246;2022-07-04T14:40:35;27.60;57.00
68051;DHT22;54839;51.364;7.246;2022-07-04T14:43:01;27.30;56.70
68051;DHT22;54839;51.364;7.246;2022-07-04T14:45:27;29.40;54.30
68051;DHT22;54839;51.364;7.246;2022-07-04T14:47:52;30.50;52.50
68051;DHT22;54839;51.364;7.246;2022-07-04T14:50:18;29.20;53.70
68051;DHT22;54839;51.364;7.246;2022-07-04T14:52:43;27.60;55.60
68051;DHT22;54839;51.364;7.246;2022-07-04T14:55:09;27.00;56.90
68051;DHT22;54839;51.364;7.246;2022-07-04T14:57:34;26.40;56.80
68051;DHT22;54839;51.364;7.246;2022-07-04T15:00:00;25.80;58.00
68051;DHT22;54839;51.364;7.246;2022-07-04T15:02:25;28.10;56.10
68051;DHT22;54839;51.364;7.246;2022-07-04T15:04:51;33.20;51.80
68051;DHT22;54839;51.364;7.246;2022-07-04T15:07:16;36.50;46.40
68051;DHT22;54839;51.364;7.246;2022-07-04T15:09:42;36.30;42.10
68051;DHT22;54839;51.364;7.246;2022-07-04T15:12:08;35.90;41.10
68051;DHT22;54839;51.364;7.246;2022-07-04T15:14:33;31.40;44.30
68051;DHT22;54839;51.364;7.246;2022-07-04T15:16:59;29.10;47.90
68051;DHT22;54839;51.364;7.246;2022-07-04T15:19:26;28.20;49.10
68051;DHT22;54839;51.364;7.246;2022-07-04T15:21:51;27.30;50.60
68051;DHT22;54839;51.364;7.246;2022-07-04T15:24:36;30.00;49.50
68051;DHT22;54839;51.364;7.246;2022-07-04T15:27:01;33.00;44.10
68051;DHT22;54839;51.364;7.246;2022-07-04T15:29:27;34.90;43.30
68051;DHT22;54839;51.364;7.246;2022-07-04T15:31:53;35.60;40.50
68051;DHT22;54839;51.364;7.246;2022-07-04T15:34:19;34.10;41.10
68051;DHT22;54839;51.364;7.246;2022-07-04T15:36:44;34.50;40.00
68051;DHT22;54839;51.364;7.246;2022-07-04T15:39:15;36.20;39.20
68051;DHT22;54839;51.364;7.246;2022-07-04T15:41:42;37.30;38.30
68051;DHT22;54839;51.364;7.246;2022-07-04T15:44:09;36.60;36.30
68051;DHT22;54839;51.364;7.246;2022-07-04T15:46:35;36.60;36.50
68051;DHT22;54839;51.364;7.246;2022-07-04T15:49:02;36.80;37.20
68051;DHT22;54839;51.364;7.246;2022-07-04T15:51:28;36.60;37.80